ヨハネスブルグ の空港の天気 - METARとTAF

ヨハネスブルグ/O.R.タンボ国際空港 ( FAOR / JNB ) - 南アフリカ ヨハネスブルグ
飛行場実況気象(Metar)
観測時間10/21 18:00 SAST (10/21 16:00 UTC)
風向・風速北 9m/s
視程10km以上
天気現象
なし
気温21℃
湿度38%
気圧1026hPa
METARFAOR 211600Z 01017KT CAVOK 21/06 Q1026 NOSIG
過去の天気等 Google飛行場航空写真 Wunderground天気予報

過去48時間のMETAR

飛行場予報(TAF)
発表時間: 10/21 12:00 SAST (10/21 10:00 UTC)
予報対象時間: 21日14時 SAST ~ 22日20時 SAST
風向・風速北 7m/s
視程10km以上
全天の4割程度の雲 雲底高度 1070m
21日17時 SAST ~ 21日23時 SAST に 確率 30% で一時的に
少しの塔状積雲 雲底高度 1070m
21日18時 SAST ~ 21日22時 SAST に 確率 30% で一時的に
天気現象弱い雷雨
少しの積乱雲 雲底高度 1070m
21日20時 SAST ~ 21日22時 SAST に徐々に
風向・風速東 5m/s
21日23時 SAST ~ 22日1時 SAST に徐々に
風向・風速不定 2m/s
視程10km以上
なし
22日4時 SAST ~ 22日8時 SAST に徐々に
風向・風速北北西 5m/s
TAF FAOR 211000Z 2112/2218 36014KT 9999 SCT035 TX27/2213Z TN13/2204Z
PROB30 TEMPO 2115/2121 FEW035TCU
PROB30 TEMPO 2116/2120 -TSRA FEW035CB
BECMG 2118/2120 10010KT
BECMG 2121/2123 VRB03KT CAVOK
BECMG 2202/2206 34010KT